sensor_id;sensor_type;location;lat;lon;timestamp;temperature;humidity
3778;DHT22;1904;50.076;8.660;2022-09-06T00:03:29;17.90;1.00
3778;DHT22;1904;50.076;8.660;2022-09-06T00:06:11;17.90;1.00
3778;DHT22;1904;50.076;8.660;2022-09-06T00:09:03;17.90;1.00
3778;DHT22;1904;50.076;8.660;2022-09-06T00:12:03;17.90;1.00
3778;DHT22;1904;50.076;8.660;2022-09-06T00:14:34;17.90;1.00
3778;DHT22;1904;50.076;8.660;2022-09-06T00:17:04;18.00;1.00
3778;DHT22;1904;50.076;8.660;2022-09-06T00:19:34;18.00;1.00
3778;DHT22;1904;50.076;8.660;2022-09-06T00:22:04;18.00;1.00
3778;DHT22;1904;50.076;8.660;2022-09-06T00:37:36;18.00;1.00
3778;DHT22;1904;50.076;8.660;2022-09-06T00:43:40;18.00;1.00
3778;DHT22;1904;50.076;8.660;2022-09-06T00:49:31;18.00;1.00
3778;DHT22;1904;50.076;8.660;2022-09-06T01:02:05;18.00;1.00
3778;DHT22;1904;50.076;8.660;2022-09-06T01:04:35;18.00;1.00
3778;DHT22;1904;50.076;8.660;2022-09-06T01:07:24;18.00;1.00
3778;DHT22;1904;50.076;8.660;2022-09-06T01:15:33;18.20;1.00
3778;DHT22;1904;50.076;8.660;2022-09-06T01:18:29;18.20;1.00
3778;DHT22;1904;50.076;8.660;2022-09-06T01:21:13;18.30;1.00
3778;DHT22;1904;50.076;8.660;2022-09-06T01:29:49;18.40;1.00
3778;DHT22;1904;50.076;8.660;2022-09-06T01:46:12;18.50;1.00
3778;DHT22;1904;50.076;8.660;2022-09-06T01:51:55;18.50;1.00
3778;DHT22;1904;50.076;8.660;2022-09-06T02:04:46;18.30;1.00
3778;DHT22;1904;50.076;8.660;2022-09-06T02:07:30;18.40;1.00
3778;DHT22;1904;50.076;8.660;2022-09-06T02:16:43;19.10;1.00
3778;DHT22;1904;50.076;8.660;2022-09-06T02:21:42;19.50;1.00
3778;DHT22;1904;50.076;8.660;2022-09-06T02:24:22;19.70;1.00
3778;DHT22;1904;50.076;8.660;2022-09-06T02:26:52;19.80;1.00
3778;DHT22;1904;50.076;8.660;2022-09-06T02:29:22;20.00;1.00
3778;DHT22;1904;50.076;8.660;2022-09-06T02:38:36;20.60;1.00
3778;DHT22;1904;50.076;8.660;2022-09-06T02:44:25;20.80;1.00
3778;DHT22;1904;50.076;8.660;2022-09-06T02:46:50;21.00;1.00
3778;DHT22;1904;50.076;8.660;2022-09-06T02:56:27;21.20;1.00
3778;DHT22;1904;50.076;8.660;2022-09-06T03:02:46;21.30;1.00
3778;DHT22;1904;50.076;8.660;2022-09-06T03:08:33;21.50;1.00
3778;DHT22;1904;50.076;8.660;2022-09-06T03:11:22;21.50;1.00
3778;DHT22;1904;50.076;8.660;2022-09-06T03:17:09;21.60;1.00
3778;DHT22;1904;50.076;8.660;2022-09-06T03:29:41;21.50;1.00
3778;DHT22;1904;50.076;8.660;2022-09-06T03:35:28;21.40;1.00
3778;DHT22;1904;50.076;8.660;2022-09-06T03:41:16;21.30;1.00
3778;DHT22;1904;50.076;8.660;2022-09-06T03:47:03;21.00;1.00
3778;DHT22;1904;50.076;8.660;2022-09-06T03:49:29;20.90;1.00
3778;DHT22;1904;50.076;8.660;2022-09-06T03:51:55;20.90;1.00
3778;DHT22;1904;50.076;8.660;2022-09-06T03:54:22;20.80;1.00
3778;DHT22;1904;50.076;8.660;2022-09-06T03:56:49;20.70;1.00
3778;DHT22;1904;50.076;8.660;2022-09-06T03:59:14;20.60;1.00
3778;DHT22;1904;50.076;8.660;2022-09-06T04:01:55;20.50;1.00
3778;DHT22;1904;50.076;8.660;2022-09-06T04:04:20;21.20;1.00
3778;DHT22;1904;50.076;8.660;2022-09-06T04:13:34;20.20;1.00
3778;DHT22;1904;50.076;8.660;2022-09-06T04:16:04;20.10;1.00
3778;DHT22;1904;50.076;8.660;2022-09-06T04:18:52;20.10;1.00
3778;DHT22;1904;50.076;8.660;2022-09-06T04:21:22;20.10;1.00
3778;DHT22;1904;50.076;8.660;2022-09-06T04:30:31;20.00;1.00
3778;DHT22;1904;50.076;8.660;2022-09-06T04:33:16;19.90;1.00
3778;DHT22;1904;50.076;8.660;2022-09-06T04:35:59;19.90;1.00
3778;DHT22;1904;50.076;8.660;2022-09-06T04:41:47;19.90;1.00
3778;DHT22;1904;50.076;8.660;2022-09-06T04:44:28;19.80;1.00
3778;DHT22;1904;50.076;8.660;2022-09-06T04:47:12;19.80;1.00
3778;DHT22;1904;50.076;8.660;2022-09-06T04:49:40;19.70;1.00
3778;DHT22;1904;50.076;8.660;2022-09-06T04:52:06;19.70;1.00
3778;DHT22;1904;50.076;8.660;2022-09-06T04:54:32;19.70;1.00
3778;DHT22;1904;50.076;8.660;2022-09-06T04:56:58;19.60;1.00
3778;DHT22;1904;50.076;8.660;2022-09-06T04:59:23;19.60;1.00
3778;DHT22;1904;50.076;8.660;2022-09-06T05:01:49;19.50;1.00
3778;DHT22;1904;50.076;8.660;2022-09-06T05:04:46;19.40;1.00
3778;DHT22;1904;50.076;8.660;2022-09-06T05:07:28;19.40;1.00
3778;DHT22;1904;50.076;8.660;2022-09-06T05:16:37;19.10;1.00
3778;DHT22;1904;50.076;8.660;2022-09-06T05:22:58;19.00;1.00
3778;DHT22;1904;50.076;8.660;2022-09-06T05:28:46;18.90;1.00
3778;DHT22;1904;50.076;8.660;2022-09-06T05:37:56;18.60;1.00
3778;DHT22;1904;50.076;8.660;2022-09-06T05:44:15;18.60;1.00
3778;DHT22;1904;50.076;8.660;2022-09-06T05:46:45;18.60;1.00
3778;DHT22;1904;50.076;8.660;2022-09-06T05:49:12;18.50;1.00
3778;DHT22;1904;50.076;8.660;2022-09-06T05:51:40;18.50;1.00
3778;DHT22;1904;50.076;8.660;2022-09-06T05:54:06;18.50;1.00
3778;DHT22;1904;50.076;8.660;2022-09-06T05:56:52;18.50;1.00
3778;DHT22;1904;50.076;8.660;2022-09-06T06:02:39;18.60;1.00
3778;DHT22;1904;50.076;8.660;2022-09-06T06:08:27;18.70;1.00
3778;DHT22;1904;50.076;8.660;2022-09-06T06:10:57;18.70;1.00
3778;DHT22;1904;50.076;8.660;2022-09-06T06:13:23;18.70;1.00
3778;DHT22;1904;50.076;8.660;2022-09-06T06:15:49;18.80;1.00
3778;DHT22;1904;50.076;8.660;2022-09-06T06:18:14;18.80;1.00
3778;DHT22;1904;50.076;8.660;2022-09-06T06:20:40;18.90;1.00
3778;DHT22;1904;50.076;8.660;2022-09-06T06:23:05;18.90;1.00
3778;DHT22;1904;50.076;8.660;2022-09-06T06:25:31;19.00;1.00
3778;DHT22;1904;50.076;8.660;2022-09-06T06:27:57;19.00;1.00
3778;DHT22;1904;50.076;8.660;2022-09-06T06:30:22;19.00;1.00
3778;DHT22;1904;50.076;8.660;2022-09-06T06:32:48;19.10;1.00
3778;DHT22;1904;50.076;8.660;2022-09-06T06:35:13;19.20;1.00
3778;DHT22;1904;50.076;8.660;2022-09-06T06:37:39;19.30;1.00
3778;DHT22;1904;50.076;8.660;2022-09-06T06:40:07;19.30;1.00
3778;DHT22;1904;50.076;8.660;2022-09-06T06:42:33;19.40;1.00
3778;DHT22;1904;50.076;8.660;2022-09-06T06:44:58;19.50;1.00
3778;DHT22;1904;50.076;8.660;2022-09-06T06:47:24;19.60;1.00
3778;DHT22;1904;50.076;8.660;2022-09-06T06:49:50;19.70;1.00
3778;DHT22;1904;50.076;8.660;2022-09-06T06:52:16;19.80;1.00
3778;DHT22;1904;50.076;8.660;2022-09-06T06:54:41;20.00;1.00
3778;DHT22;1904;50.076;8.660;2022-09-06T06:57:07;20.00;1.00
3778;DHT22;1904;50.076;8.660;2022-09-06T06:59:34;20.10;1.00
3778;DHT22;1904;50.076;8.660;2022-09-06T07:02:00;20.20;1.00
3778;DHT22;1904;50.076;8.660;2022-09-06T07:04:27;20.30;1.00
3778;DHT22;1904;50.076;8.660;2022-09-06T07:06:54;20.40;1.00
3778;DHT22;1904;50.076;8.660;2022-09-06T07:09:20;20.60;1.00
3778;DHT22;1904;50.076;8.660;2022-09-06T07:11:47;20.70;1.00
3778;DHT22;1904;50.076;8.660;2022-09-06T07:14:16;20.90;1.00
3778;DHT22;1904;50.076;8.660;2022-09-06T07:16:42;21.10;1.00
3778;DHT22;1904;50.076;8.660;2022-09-06T07:19:08;21.20;1.00
3778;DHT22;1904;50.076;8.660;2022-09-06T07:21:34;21.30;1.00
3778;DHT22;1904;50.076;8.660;2022-09-06T07:23:59;21.40;1.00
3778;DHT22;1904;50.076;8.660;2022-09-06T07:26:27;21.60;1.00
3778;DHT22;1904;50.076;8.660;2022-09-06T07:28:59;21.70;1.00
3778;DHT22;1904;50.076;8.660;2022-09-06T07:31:27;21.80;1.00
3778;DHT22;1904;50.076;8.660;2022-09-06T07:33:53;22.00;1.00
3778;DHT22;1904;50.076;8.660;2022-09-06T07:36:19;22.10;1.00
3778;DHT22;1904;50.076;8.660;2022-09-06T07:38:49;22.20;1.00
3778;DHT22;1904;50.076;8.660;2022-09-06T07:41:15;22.50;1.00
3778;DHT22;1904;50.076;8.660;2022-09-06T07:43:44;22.60;1.00
3778;DHT22;1904;50.076;8.660;2022-09-06T07:46:12;22.70;1.00
3778;DHT22;1904;50.076;8.660;2022-09-06T07:48:39;22.80;1.00
3778;DHT22;1904;50.076;8.660;2022-09-06T07:51:13;22.90;1.00
3778;DHT22;1904;50.076;8.660;2022-09-06T07:53:41;22.90;1.00
3778;DHT22;1904;50.076;8.660;2022-09-06T07:56:10;22.90;1.00
3778;DHT22;1904;50.076;8.660;2022-09-06T07:58:36;23.00;1.00
3778;DHT22;1904;50.076;8.660;2022-09-06T08:03:50;22.90;1.00
3778;DHT22;1904;50.076;8.660;2022-09-06T08:06:16;22.90;1.00
3778;DHT22;1904;50.076;8.660;2022-09-06T08:08:42;22.90;1.00
3778;DHT22;1904;50.076;8.660;2022-09-06T08:11:08;23.00;1.00
3778;DHT22;1904;50.076;8.660;2022-09-06T08:13:34;23.00;1.00
3778;DHT22;1904;50.076;8.660;2022-09-06T08:16:02;23.10;1.00
3778;DHT22;1904;50.076;8.660;2022-09-06T08:18:28;23.10;1.00
3778;DHT22;1904;50.076;8.660;2022-09-06T08:20:54;23.20;1.00
3778;DHT22;1904;50.076;8.660;2022-09-06T08:23:19;23.20;1.00
3778;DHT22;1904;50.076;8.660;2022-09-06T08:25:55;23.30;1.00
3778;DHT22;1904;50.076;8.660;2022-09-06T08:28:21;23.40;1.00
3778;DHT22;1904;50.076;8.660;2022-09-06T08:30:47;23.60;1.00
3778;DHT22;1904;50.076;8.660;2022-09-06T08:33:13;23.70;1.00
3778;DHT22;1904;50.076;8.660;2022-09-06T08:35:40;23.80;1.00
3778;DHT22;1904;50.076;8.660;2022-09-06T08:38:05;23.80;1.00
3778;DHT22;1904;50.076;8.660;2022-09-06T08:40:31;23.80;1.00
3778;DHT22;1904;50.076;8.660;2022-09-06T08:42:57;23.80;1.00
3778;DHT22;1904;50.076;8.660;2022-09-06T08:45:23;23.90;1.00
3778;DHT22;1904;50.076;8.660;2022-09-06T08:47:49;24.00;1.00
3778;DHT22;1904;50.076;8.660;2022-09-06T08:50:17;24.10;1.00
3778;DHT22;1904;50.076;8.660;2022-09-06T08:53:01;24.20;1.00
3778;DHT22;1904;50.076;8.660;2022-09-06T09:01:06;24.60;1.00
3778;DHT22;1904;50.076;8.660;2022-09-06T09:03:38;24.70;1.00
3778;DHT22;1904;50.076;8.660;2022-09-06T09:06:05;24.70;1.00
3778;DHT22;1904;50.076;8.660;2022-09-06T09:11:06;24.80;1.00
3778;DHT22;1904;50.076;8.660;2022-09-06T09:13:38;24.90;1.00
3778;DHT22;1904;50.076;8.660;2022-09-06T09:16:05;25.10;1.00
3778;DHT22;1904;50.076;8.660;2022-09-06T09:18:33;25.10;1.00
3778;DHT22;1904;50.076;8.660;2022-09-06T09:21:02;25.20;1.00
3778;DHT22;1904;50.076;8.660;2022-09-06T09:23:30;25.30;1.00
3778;DHT22;1904;50.076;8.660;2022-09-06T09:26:01;25.40;1.00
3778;DHT22;1904;50.076;8.660;2022-09-06T09:28:27;25.60;1.00
3778;DHT22;1904;50.076;8.660;2022-09-06T09:30:54;25.70;1.00
3778;DHT22;1904;50.076;8.660;2022-09-06T09:33:29;25.80;1.00
3778;DHT22;1904;50.076;8.660;2022-09-06T09:36:08;25.70;1.00
3778;DHT22;1904;50.076;8.660;2022-09-06T09:38:45;25.90;1.00
3778;DHT22;1904;50.076;8.660;2022-09-06T09:41:31;25.80;1.00
3778;DHT22;1904;50.076;8.660;2022-09-06T09:44:02;25.80;1.00
3778;DHT22;1904;50.076;8.660;2022-09-06T09:46:31;25.90;1.00
3778;DHT22;1904;50.076;8.660;2022-09-06T09:49:37;26.10;1.00
3778;DHT22;1904;50.076;8.660;2022-09-06T09:52:26;26.10;1.00
3778;DHT22;1904;50.076;8.660;2022-09-06T09:54:54;26.30;1.00
3778;DHT22;1904;50.076;8.660;2022-09-06T09:57:21;26.40;1.00
3778;DHT22;1904;50.076;8.660;2022-09-06T09:59:58;26.50;1.00
3778;DHT22;1904;50.076;8.660;2022-09-06T10:02:38;26.50;1.00
3778;DHT22;1904;50.076;8.660;2022-09-06T10:05:08;26.50;1.00
3778;DHT22;1904;50.076;8.660;2022-09-06T10:07:53;26.50;1.00
3778;DHT22;1904;50.076;8.660;2022-09-06T10:10:27;26.60;1.00
3778;DHT22;1904;50.076;8.660;2022-09-06T10:13:20;26.60;1.00
3778;DHT22;1904;50.076;8.660;2022-09-06T10:15:47;26.70;1.00
3778;DHT22;1904;50.076;8.660;2022-09-06T10:18:42;26.90;1.00
3778;DHT22;1904;50.076;8.660;2022-09-06T10:21:13;27.00;1.00
3778;DHT22;1904;50.076;8.660;2022-09-06T10:24:24;27.10;1.00
3778;DHT22;1904;50.076;8.660;2022-09-06T10:26:58;27.20;1.00
3778;DHT22;1904;50.076;8.660;2022-09-06T10:29:41;27.30;1.00
3778;DHT22;1904;50.076;8.660;2022-09-06T10:32:18;27.40;1.00
3778;DHT22;1904;50.076;8.660;2022-09-06T10:40:06;27.70;1.00
3778;DHT22;1904;50.076;8.660;2022-09-06T10:42:41;27.80;1.00
3778;DHT22;1904;50.076;8.660;2022-09-06T10:48:20;27.70;1.00
3778;DHT22;1904;50.076;8.660;2022-09-06T10:50:55;27.90;1.00
3778;DHT22;1904;50.076;8.660;2022-09-06T10:56:14;28.00;1.00
3778;DHT22;1904;50.076;8.660;2022-09-06T10:58:52;28.10;1.00
3778;DHT22;1904;50.076;8.660;2022-09-06T11:01:25;28.20;1.00
3778;DHT22;1904;50.076;8.660;2022-09-06T11:03:55;28.30;1.00
3778;DHT22;1904;50.076;8.660;2022-09-06T11:06:24;28.20;1.00
3778;DHT22;1904;50.076;8.660;2022-09-06T11:09:05;28.30;1.00
3778;DHT22;1904;50.076;8.660;2022-09-06T11:11:43;28.40;1.00
3778;DHT22;1904;50.076;8.660;2022-09-06T11:14:13;28.40;1.00
3778;DHT22;1904;50.076;8.660;2022-09-06T11:16:51;28.40;1.00
3778;DHT22;1904;50.076;8.660;2022-09-06T11:19:30;28.60;1.00
3778;DHT22;1904;50.076;8.660;2022-09-06T11:27:39;28.80;1.00
3778;DHT22;1904;50.076;8.660;2022-09-06T11:30:16;29.00;1.00
3778;DHT22;1904;50.076;8.660;2022-09-06T11:32:50;29.00;1.00
3778;DHT22;1904;50.076;8.660;2022-09-06T11:35:29;29.00;1.00
3778;DHT22;1904;50.076;8.660;2022-09-06T11:38:17;28.80;1.00
3778;DHT22;1904;50.076;8.660;2022-09-06T11:40:45;28.80;1.00
3778;DHT22;1904;50.076;8.660;2022-09-06T11:43:16;29.00;1.00
3778;DHT22;1904;50.076;8.660;2022-09-06T11:51:00;29.60;1.00
3778;DHT22;1904;50.076;8.660;2022-09-06T11:53:31;29.70;1.00
3778;DHT22;1904;50.076;8.660;2022-09-06T12:06:42;29.80;1.00
3778;DHT22;1904;50.076;8.660;2022-09-06T12:09:28;29.90;1.00
3778;DHT22;1904;50.076;8.660;2022-09-06T12:11:55;30.00;1.00
3778;DHT22;1904;50.076;8.660;2022-09-06T12:19:56;30.30;1.00
3778;DHT22;1904;50.076;8.660;2022-09-06T12:27:55;30.50;1.00
3778;DHT22;1904;50.076;8.660;2022-09-06T12:32:56;30.50;1.00
3778;DHT22;1904;50.076;8.660;2022-09-06T12:35:25;30.60;1.00
3778;DHT22;1904;50.076;8.660;2022-09-06T12:37:57;30.70;1.00
3778;DHT22;1904;50.076;8.660;2022-09-06T12:40:25;30.80;1.00
3778;DHT22;1904;50.076;8.660;2022-09-06T12:42:52;30.80;1.00
3778;DHT22;1904;50.076;8.660;2022-09-06T12:45:19;30.90;1.00
3778;DHT22;1904;50.076;8.660;2022-09-06T12:47:46;30.90;1.00
3778;DHT22;1904;50.076;8.660;2022-09-06T12:50:18;31.00;1.00
3778;DHT22;1904;50.076;8.660;2022-09-06T12:52:52;30.80;1.00
3778;DHT22;1904;50.076;8.660;2022-09-06T12:55:33;30.70;1.00
3778;DHT22;1904;50.076;8.660;2022-09-06T13:04:26;31.20;1.00
3778;DHT22;1904;50.076;8.660;2022-09-06T13:07:28;31.30;1.00
3778;DHT22;1904;50.076;8.660;2022-09-06T13:09:57;31.30;1.00
3778;DHT22;1904;50.076;8.660;2022-09-06T13:12:46;31.20;1.00
3778;DHT22;1904;50.076;8.660;2022-09-06T13:15:26;31.30;1.00
3778;DHT22;1904;50.076;8.660;2022-09-06T13:21:32;31.50;1.00
3778;DHT22;1904;50.076;8.660;2022-09-06T13:23:58;31.50;1.00
3778;DHT22;1904;50.076;8.660;2022-09-06T13:26:46;31.60;1.00
3778;DHT22;1904;50.076;8.660;2022-09-06T13:31:50;31.50;1.00
3778;DHT22;1904;50.076;8.660;2022-09-06T13:34:30;31.60;1.00
3778;DHT22;1904;50.076;8.660;2022-09-06T13:37:04;31.80;1.00
3778;DHT22;1904;50.076;8.660;2022-09-06T13:39:40;32.00;1.00
3778;DHT22;1904;50.076;8.660;2022-09-06T13:45:28;32.00;1.00
3778;DHT22;1904;50.076;8.660;2022-09-06T13:47:55;31.90;1.00
3778;DHT22;1904;50.076;8.660;2022-09-06T13:50:28;31.70;1.00
3778;DHT22;1904;50.076;8.660;2022-09-06T13:52:54;31.90;1.00
3778;DHT22;1904;50.076;8.660;2022-09-06T14:01:43;31.80;1.00
3778;DHT22;1904;50.076;8.660;2022-09-06T14:04:18;32.00;1.00
3778;DHT22;1904;50.076;8.660;2022-09-06T14:06:47;32.10;1.00
3778;DHT22;1904;50.076;8.660;2022-09-06T14:09:13;32.20;1.00
3778;DHT22;1904;50.076;8.660;2022-09-06T14:11:39;32.40;1.00
3778;DHT22;1904;50.076;8.660;2022-09-06T14:14:05;32.20;1.00
3778;DHT22;1904;50.076;8.660;2022-09-06T14:16:32;32.40;1.00
3778;DHT22;1904;50.076;8.660;2022-09-06T14:18:58;32.40;1.00
3778;DHT22;1904;50.076;8.660;2022-09-06T14:21:24;32.50;1.00
3778;DHT22;1904;50.076;8.660;2022-09-06T14:27:16;32.30;1.00
3778;DHT22;1904;50.076;8.660;2022-09-06T14:29:46;32.30;1.00
3778;DHT22;1904;50.076;8.660;2022-09-06T14:32:46;32.50;1.00
3778;DHT22;1904;50.076;8.660;2022-09-06T14:35:16;32.60;1.00
3778;DHT22;1904;50.076;8.660;2022-09-06T14:37:46;32.60;1.00
3778;DHT22;1904;50.076;8.660;2022-09-06T14:40:22;32.60;1.00
3778;DHT22;1904;50.076;8.660;2022-09-06T14:46:16;32.80;1.00
3778;DHT22;1904;50.076;8.660;2022-09-06T14:49:10;32.90;1.00
3778;DHT22;1904;50.076;8.660;2022-09-06T14:51:52;33.00;1.00
3778;DHT22;1904;50.076;8.660;2022-09-06T14:54:18;33.00;1.00
3778;DHT22;1904;50.076;8.660;2022-09-06T14:56:44;32.90;1.00
3778;DHT22;1904;50.076;8.660;2022-09-06T14:59:16;33.20;1.00
3778;DHT22;1904;50.076;8.660;2022-09-06T15:01:42;33.90;1.00
3778;DHT22;1904;50.076;8.660;2022-09-06T15:04:09;34.60;1.00
3778;DHT22;1904;50.076;8.660;2022-09-06T15:06:36;35.60;1.00
3778;DHT22;1904;50.076;8.660;2022-09-06T15:09:04;36.50;1.00
3778;DHT22;1904;50.076;8.660;2022-09-06T15:11:37;37.30;1.00
3778;DHT22;1904;50.076;8.660;2022-09-06T15:14:15;37.20;1.00
3778;DHT22;1904;50.076;8.660;2022-09-06T15:16:47;37.10;1.00
3778;DHT22;1904;50.076;8.660;2022-09-06T15:19:16;36.70;1.00
3778;DHT22;1904;50.076;8.660;2022-09-06T15:22:16;36.10;1.00
3778;DHT22;1904;50.076;8.660;2022-09-06T15:24:42;35.40;1.00
3778;DHT22;1904;50.076;8.660;2022-09-06T15:27:16;34.60;1.00
3778;DHT22;1904;50.076;8.660;2022-09-06T15:29:43;33.90;1.00
3778;DHT22;1904;50.076;8.660;2022-09-06T15:32:16;33.40;1.00
3778;DHT22;1904;50.076;8.660;2022-09-06T15:34:42;33.10;1.00
3778;DHT22;1904;50.076;8.660;2022-09-06T15:37:34;32.70;1.00
3778;DHT22;1904;50.076;8.660;2022-09-06T15:39:59;32.40;1.00
3778;DHT22;1904;50.076;8.660;2022-09-06T15:42:46;32.10;1.00
3778;DHT22;1904;50.076;8.660;2022-09-06T15:45:16;32.10;1.00
3778;DHT22;1904;50.076;8.660;2022-09-06T15:47:46;31.90;1.00
3778;DHT22;1904;50.076;8.660;2022-09-06T15:50:16;31.60;1.00
3778;DHT22;1904;50.076;8.660;2022-09-06T15:52:42;31.40;1.00
3778;DHT22;1904;50.076;8.660;2022-09-06T15:58:52;31.20;1.00
3778;DHT22;1904;50.076;8.660;2022-09-06T16:01:35;31.00;1.00
3778;DHT22;1904;50.076;8.660;2022-09-06T16:07:22;30.80;1.00
3778;DHT22;1904;50.076;8.660;2022-09-06T16:20:29;30.20;1.00
3778;DHT22;1904;50.076;8.660;2022-09-06T16:23:16;30.00;1.00
3778;DHT22;1904;50.076;8.660;2022-09-06T16:25:59;29.90;1.00
3778;DHT22;1904;50.076;8.660;2022-09-06T16:35:09;29.50;1.00
3778;DHT22;1904;50.076;8.660;2022-09-06T16:37:41;29.30;1.00
3778;DHT22;1904;50.076;8.660;2022-09-06T16:40:29;29.30;1.00
3778;DHT22;1904;50.076;8.660;2022-09-06T16:43:11;29.00;1.00
3778;DHT22;1904;50.076;8.660;2022-09-06T16:45:59;28.90;1.00
3778;DHT22;1904;50.076;8.660;2022-09-06T16:48:26;28.50;1.00
3778;DHT22;1904;50.076;8.660;2022-09-06T16:51:08;28.20;1.00
3778;DHT22;1904;50.076;8.660;2022-09-06T16:53:35;27.70;1.00
3778;DHT22;1904;50.076;8.660;2022-09-06T16:56:04;27.10;1.00
3778;DHT22;1904;50.076;8.660;2022-09-06T16:58:30;26.40;1.00
3778;DHT22;1904;50.076;8.660;2022-09-06T17:04:29;25.60;1.00
3778;DHT22;1904;50.076;8.660;2022-09-06T17:07:28;25.00;1.00
3778;DHT22;1904;50.076;8.660;2022-09-06T17:10:07;24.80;1.00
3778;DHT22;1904;50.076;8.660;2022-09-06T17:12:47;24.50;1.00
3778;DHT22;1904;50.076;8.660;2022-09-06T17:15:23;24.20;1.00
3778;DHT22;1904;50.076;8.660;2022-09-06T17:27:59;23.10;1.00
3778;DHT22;1904;50.076;8.660;2022-09-06T17:30:25;22.80;1.00
3778;DHT22;1904;50.076;8.660;2022-09-06T17:32:51;22.70;1.00
3778;DHT22;1904;50.076;8.660;2022-09-06T17:35:29;22.60;1.00
3778;DHT22;1904;50.076;8.660;2022-09-06T17:37:55;22.50;1.00
3778;DHT22;1904;50.076;8.660;2022-09-06T17:40:21;22.50;1.00
3778;DHT22;1904;50.076;8.660;2022-09-06T17:52:44;21.60;1.00
3778;DHT22;1904;50.076;8.660;2022-09-06T17:58:32;21.40;1.00
3778;DHT22;1904;50.076;8.660;2022-09-06T18:07:29;21.10;1.00
3778;DHT22;1904;50.076;8.660;2022-09-06T18:10:05;21.10;1.00
3778;DHT22;1904;50.076;8.660;2022-09-06T18:13:05;21.00;1.00
3778;DHT22;1904;50.076;8.660;2022-09-06T18:19:11;21.00;1.00
3778;DHT22;1904;50.076;8.660;2022-09-06T18:24:58;20.80;1.00
3778;DHT22;1904;50.076;8.660;2022-09-06T18:30:49;20.70;1.00
3778;DHT22;1904;50.076;8.660;2022-09-06T18:37:00;20.50;1.00
3778;DHT22;1904;50.076;8.660;2022-09-06T18:39:53;20.50;1.00
3778;DHT22;1904;50.076;8.660;2022-09-06T18:45:40;20.50;1.00
3778;DHT22;1904;50.076;8.660;2022-09-06T18:48:23;20.50;1.00
3778;DHT22;1904;50.076;8.660;2022-09-06T18:51:07;20.50;1.00
3778;DHT22;1904;50.076;8.660;2022-09-06T19:03:22;20.40;1.00
3778;DHT22;1904;50.076;8.660;2022-09-06T19:08:42;20.10;1.00
3778;DHT22;1904;50.076;8.660;2022-09-06T19:11:13;20.00;1.00
3778;DHT22;1904;50.076;8.660;2022-09-06T19:14:17;20.00;1.00
3778;DHT22;1904;50.076;8.660;2022-09-06T19:16:53;19.90;1.00
3778;DHT22;1904;50.076;8.660;2022-09-06T19:19:47;19.80;1.00
3778;DHT22;1904;50.076;8.660;2022-09-06T19:22:12;19.70;1.00
3778;DHT22;1904;50.076;8.660;2022-09-06T19:28:05;19.50;1.00
3778;DHT22;1904;50.076;8.660;2022-09-06T19:30:41;19.40;1.00
3778;DHT22;1904;50.076;8.660;2022-09-06T19:33:17;19.30;1.00
3778;DHT22;1904;50.076;8.660;2022-09-06T19:35:51;19.30;1.00
3778;DHT22;1904;50.076;8.660;2022-09-06T19:38:37;19.20;1.00
3778;DHT22;1904;50.076;8.660;2022-09-06T19:41:13;19.10;1.00
3778;DHT22;1904;50.076;8.660;2022-09-06T19:43:54;19.00;1.00
3778;DHT22;1904;50.076;8.660;2022-09-06T19:46:24;19.00;1.00
3778;DHT22;1904;50.076;8.660;2022-09-06T19:52:29;18.90;1.00
3778;DHT22;1904;50.076;8.660;2022-09-06T19:58:23;18.70;1.00
3778;DHT22;1904;50.076;8.660;2022-09-06T20:04:15;18.50;1.00
3778;DHT22;1904;50.076;8.660;2022-09-06T20:07:05;18.50;1.00
3778;DHT22;1904;50.076;8.660;2022-09-06T20:12:52;18.40;1.00
3778;DHT22;1904;50.076;8.660;2022-09-06T20:15:18;18.40;1.00
3778;DHT22;1904;50.076;8.660;2022-09-06T20:30:44;18.20;1.00
3778;DHT22;1904;50.076;8.660;2022-09-06T20:33:41;18.20;1.00
3778;DHT22;1904;50.076;8.660;2022-09-06T20:36:17;18.20;1.00
3778;DHT22;1904;50.076;8.660;2022-09-06T20:38:59;18.20;1.00
3778;DHT22;1904;50.076;8.660;2022-09-06T20:54:59;18.00;1.00
3778;DHT22;1904;50.076;8.660;2022-09-06T21:01:07;18.00;1.00
3778;DHT22;1904;50.076;8.660;2022-09-06T21:07:17;18.00;1.00
3778;DHT22;1904;50.076;8.660;2022-09-06T21:09:59;18.00;1.00
3778;DHT22;1904;50.076;8.660;2022-09-06T21:12:25;17.90;2.40
3778;DHT22;1904;50.076;8.660;2022-09-06T21:15:05;17.90;3.70
3778;DHT22;1904;50.076;8.660;2022-09-06T21:17:35;17.90;3.00
3778;DHT22;1904;50.076;8.660;2022-09-06T21:20:11;17.90;4.20
3778;DHT22;1904;50.076;8.660;2022-09-06T21:26:17;18.00;8.40
3778;DHT22;1904;50.076;8.660;2022-09-06T21:28:53;17.90;6.60
3778;DHT22;1904;50.076;8.660;2022-09-06T21:37:40;17.80;7.10
3778;DHT22;1904;50.076;8.660;2022-09-06T21:43:28;17.80;5.80
3778;DHT22;1904;50.076;8.660;2022-09-06T21:49:35;17.80;4.00
3778;DHT22;1904;50.076;8.660;2022-09-06T21:59:00;17.70;8.10
3778;DHT22;1904;50.076;8.660;2022-09-06T22:01:31;17.70;7.20
3778;DHT22;1904;50.076;8.660;2022-09-06T22:07:29;17.70;9.10
3778;DHT22;1904;50.076;8.660;2022-09-06T22:27:05;17.50;17.00
3778;DHT22;1904;50.076;8.660;2022-09-06T22:29:47;17.50;16.40
3778;DHT22;1904;50.076;8.660;2022-09-06T22:38:35;17.50;14.80
3778;DHT22;1904;50.076;8.660;2022-09-06T22:44:35;17.50;15.80
3778;DHT22;1904;50.076;8.660;2022-09-06T22:47:17;17.50;16.10
3778;DHT22;1904;50.076;8.660;2022-09-06T22:50:17;17.50;15.90
3778;DHT22;1904;50.076;8.660;2022-09-06T22:53:11;17.50;15.60
3778;DHT22;1904;50.076;8.660;2022-09-06T23:02:53;17.50;14.40
3778;DHT22;1904;50.076;8.660;2022-09-06T23:15:25;17.50;19.90
3778;DHT22;1904;50.076;8.660;2022-09-06T23:17:51;17.50;23.00
3778;DHT22;1904;50.076;8.660;2022-09-06T23:20:16;17.50;24.20
3778;DHT22;1904;50.076;8.660;2022-09-06T23:22:47;17.50;26.10
3778;DHT22;1904;50.076;8.660;2022-09-06T23:25:17;17.50;26.90
3778;DHT22;1904;50.076;8.660;2022-09-06T23:27:47;17.50;26.20
3778;DHT22;1904;50.076;8.660;2022-09-06T23:32:56;17.40;20.90
3778;DHT22;1904;50.076;8.660;2022-09-06T23:35:22;17.50;21.80
3778;DHT22;1904;50.076;8.660;2022-09-06T23:38:23;17.50;19.00
3778;DHT22;1904;50.076;8.660;2022-09-06T23:40:49;17.50;19.40
3778;DHT22;1904;50.076;8.660;2022-09-06T23:43:17;17.50;19.50
3778;DHT22;1904;50.076;8.660;2022-09-06T23:45:47;17.50;19.30
3778;DHT22;1904;50.076;8.660;2022-09-06T23:48:29;17.50;17.70
3778;DHT22;1904;50.076;8.660;2022-09-06T23:50:59;17.50;17.20
3778;DHT22;1904;50.076;8.660;2022-09-06T23:53:35;17.50;14.70
3778;DHT22;1904;50.076;8.660;2022-09-06T23:56:06;17.50;17.10
3778;DHT22;1904;50.076;8.660;2022-09-06T23:58:31;17.50;18.10
